createdAt,value
2023-01-20T00:00:40.060Z,76.33
2023-01-20T00:03:44.528Z,76.46
2023-01-20T00:06:47.712Z,76.33
2023-01-20T00:09:50.397Z,76.42
2023-01-20T00:12:52.762Z,76.50
2023-01-20T00:15:55.418Z,76.41
2023-01-20T00:18:58.269Z,76.64
2023-01-20T00:22:00.896Z,76.72
2023-01-20T00:25:03.358Z,76.67
2023-01-20T00:28:06.247Z,76.57
2023-01-20T00:31:17.030Z,76.72
2023-01-20T00:34:19.664Z,76.66
2023-01-20T00:37:21.961Z,76.49
2023-01-20T00:40:24.654Z,76.11
2023-01-20T00:43:27.168Z,75.94
2023-01-20T00:46:29.923Z,75.79
2023-01-20T00:49:32.408Z,75.70
2023-01-20T00:52:34.987Z,75.76
2023-01-20T00:55:37.449Z,75.42
2023-01-20T00:58:42.744Z,75.19
2023-01-20T01:01:46.176Z,75.28
2023-01-20T01:04:52.039Z,75.39
2023-01-20T01:07:54.424Z,75.40
2023-01-20T01:10:59.207Z,75.19
2023-01-20T01:14:01.642Z,75.48
2023-01-20T01:17:04.266Z,75.44
2023-01-20T01:20:07.075Z,75.31
2023-01-20T01:23:09.716Z,75.15
2023-01-20T01:26:12.791Z,74.91
2023-01-20T01:29:15.519Z,74.66
2023-01-20T01:32:18.012Z,74.79
2023-01-20T01:35:20.721Z,74.77
2023-01-20T01:38:23.265Z,74.91
2023-01-20T01:41:26.247Z,75.29
2023-01-20T01:44:28.591Z,75.48
2023-01-20T01:47:31.316Z,75.29
2023-01-20T01:50:39.605Z,75.50
2023-01-20T01:53:48.648Z,75.63
2023-01-20T01:56:52.068Z,75.74
2023-01-20T01:59:54.674Z,75.36
2023-01-20T02:02:58.027Z,75.40
2023-01-20T02:06:01.650Z,75.10
2023-01-20T02:09:04.850Z,74.92
2023-01-20T02:12:15.500Z,74.99
2023-01-20T02:15:24.683Z,75.17
2023-01-20T02:18:36.407Z,74.80
2023-01-20T02:22:20.969Z,74.65
2023-01-20T02:25:45.252Z,74.82
2023-01-20T02:29:21.835Z,74.95
2023-01-20T02:32:45.164Z,75.17
2023-01-20T02:35:55.183Z,75.08
2023-01-20T02:39:27.987Z,74.82
2023-01-20T02:42:39.558Z,74.90
2023-01-20T02:45:50.301Z,74.94
2023-01-20T02:49:17.982Z,75.07
2023-01-20T02:52:25.476Z,75.44
2023-01-20T02:55:36.550Z,75.36
2023-01-20T02:58:49.185Z,75.25
2023-01-20T03:01:58.320Z,75.20
2023-01-20T03:05:09.479Z,75.77
2023-01-20T03:08:14.315Z,75.63
2023-01-20T03:11:17.153Z,75.29
2023-01-20T03:14:19.736Z,75.51
2023-01-20T03:17:23.096Z,75.66
2023-01-20T03:20:25.566Z,75.48
2023-01-20T03:23:33.441Z,75.41
2023-01-20T03:26:35.874Z,75.51
2023-01-20T03:29:38.584Z,75.76
2023-01-20T03:32:43.580Z,75.96
2023-01-20T03:35:46.486Z,75.52
2023-01-20T03:38:49.732Z,75.85
2023-01-20T03:42:13.921Z,75.76
2023-01-20T03:45:53.229Z,75.60
2023-01-20T03:49:13.809Z,75.76
2023-01-20T03:52:46.931Z,75.96
2023-01-20T03:56:04.404Z,76.24
2023-01-20T03:59:09.581Z,76.35
2023-01-20T04:02:12.413Z,76.31
2023-01-20T04:05:16.506Z,75.87
2023-01-20T04:08:24.891Z,75.94
2023-01-20T04:11:27.977Z,75.96
2023-01-20T04:14:30.335Z,75.91
2023-01-20T04:17:33.275Z,76.00
2023-01-20T04:20:35.608Z,75.69
2023-01-20T04:23:48.245Z,75.58
2023-01-20T04:26:50.694Z,75.56
2023-01-20T04:29:53.353Z,75.36
2023-01-20T04:32:56.457Z,75.56
2023-01-20T04:35:59.073Z,75.53
2023-01-20T04:39:01.435Z,75.80
2023-01-20T04:42:04.216Z,75.56
2023-01-20T04:45:07.033Z,75.61
2023-01-20T04:48:10.064Z,75.72
2023-01-20T04:51:12.888Z,75.65
2023-01-20T04:54:15.546Z,75.76
2023-01-20T04:57:17.909Z,75.64
2023-01-20T05:00:20.766Z,75.52
2023-01-20T05:03:23.143Z,75.49
2023-01-20T05:06:25.873Z,75.45
2023-01-20T05:09:28.194Z,75.57
2023-01-20T05:12:30.755Z,75.42
2023-01-20T05:15:33.189Z,75.38
2023-01-20T05:18:36.584Z,75.52
2023-01-20T05:21:39.073Z,75.41
2023-01-20T05:24:41.866Z,75.22
2023-01-20T05:27:45.295Z,75.42
2023-01-20T05:30:48.571Z,75.27
2023-01-20T05:33:51.083Z,75.21
2023-01-20T05:36:54.408Z,75.34
2023-01-20T05:39:56.756Z,75.09
2023-01-20T05:43:03.108Z,74.97
2023-01-20T05:46:06.170Z,75.20
2023-01-20T05:49:12.341Z,75.34
2023-01-20T05:52:14.758Z,75.41
2023-01-20T05:55:17.755Z,75.41
2023-01-20T05:58:20.230Z,75.52
2023-01-20T06:01:23.603Z,75.57
2023-01-20T06:04:26.436Z,75.58
2023-01-20T06:07:29.827Z,75.54
2023-01-20T06:10:32.419Z,76.18
2023-01-20T06:13:39.595Z,76.30
2023-01-20T06:16:42.274Z,76.30
2023-01-20T06:19:44.645Z,76.53
2023-01-20T06:22:47.462Z,76.59
2023-01-20T06:25:49.880Z,76.82
2023-01-20T06:28:52.614Z,76.74
2023-01-20T06:31:55.877Z,76.92
2023-01-20T06:34:58.562Z,76.91
2023-01-20T06:38:00.884Z,77.38
2023-01-20T06:41:06.732Z,77.16
2023-01-20T06:44:09.054Z,77.10
2023-01-20T06:47:11.689Z,76.94
2023-01-20T06:50:14.259Z,76.72
2023-01-20T06:53:17.565Z,76.56
2023-01-20T06:56:20.567Z,77.02
2023-01-20T06:59:23.205Z,76.79
2023-01-20T07:02:25.575Z,76.76
2023-01-20T07:05:28.179Z,76.53
2023-01-20T07:08:30.955Z,76.52
2023-01-20T07:11:35.198Z,76.73
2023-01-20T07:14:37.532Z,76.79
2023-01-20T07:17:40.232Z,76.66
2023-01-20T07:20:45.920Z,76.36
2023-01-20T07:23:49.289Z,76.14
2023-01-20T07:26:53.516Z,76.51
2023-01-20T07:29:59.028Z,76.44
2023-01-20T07:33:01.523Z,76.35
2023-01-20T07:36:05.107Z,76.37
2023-01-20T07:39:09.406Z,76.23
2023-01-20T07:42:12.098Z,76.15
2023-01-20T07:45:14.772Z,76.17
2023-01-20T07:48:17.582Z,76.23
2023-01-20T07:51:20.026Z,75.98
2023-01-20T07:54:22.875Z,76.03
2023-01-20T07:57:25.730Z,75.87
2023-01-20T08:00:28.375Z,75.73
2023-01-20T08:03:31.074Z,75.71
2023-01-20T08:06:33.853Z,75.60
2023-01-20T08:09:36.470Z,75.49
2023-01-20T08:12:39.457Z,75.49
2023-01-20T08:15:42.148Z,75.57
2023-01-20T08:18:44.793Z,75.23
2023-01-20T08:21:47.380Z,75.12
2023-01-20T08:24:49.756Z,74.94
2023-01-20T08:27:52.736Z,74.64
2023-01-20T08:30:56.148Z,74.51
2023-01-20T08:33:59.060Z,74.67
2023-01-20T08:37:01.432Z,74.70
2023-01-20T08:40:08.507Z,74.55
2023-01-20T08:43:10.966Z,74.60
2023-01-20T08:46:16.130Z,74.64
2023-01-20T08:49:19.235Z,74.65
2023-01-20T08:52:22.031Z,74.51
2023-01-20T08:55:24.368Z,74.34
2023-01-20T08:58:29.761Z,74.24
2023-01-20T09:01:35.999Z,74.22
2023-01-20T09:04:39.042Z,73.95
2023-01-20T09:07:42.259Z,74.01
2023-01-20T09:10:45.716Z,73.94
2023-01-20T09:13:48.805Z,73.64
2023-01-20T09:16:52.248Z,73.50
2023-01-20T09:19:55.469Z,73.37
2023-01-20T09:23:02.820Z,73.58
2023-01-20T09:26:07.079Z,73.53
2023-01-20T09:29:16.527Z,73.56
2023-01-20T09:32:18.881Z,73.44
2023-01-20T09:35:21.490Z,73.33
2023-01-20T09:38:44.376Z,72.95
2023-01-20T09:42:19.304Z,72.83
2023-01-20T09:45:34.292Z,72.55
2023-01-20T09:49:01.708Z,72.31
2023-01-20T09:52:47.864Z,71.97
2023-01-20T09:55:59.753Z,72.18
2023-01-20T09:59:07.940Z,72.06
2023-01-20T10:02:25.699Z,72.22
2023-01-20T10:05:33.865Z,72.18
2023-01-20T10:09:04.595Z,71.89
2023-01-20T10:12:14.935Z,71.68
2023-01-20T10:15:29.905Z,71.40
2023-01-20T10:18:44.105Z,71.04
2023-01-20T10:21:54.592Z,70.63
2023-01-20T10:25:09.251Z,70.19
2023-01-20T10:28:19.289Z,69.89
2023-01-20T10:31:28.058Z,69.23
2023-01-20T10:34:45.618Z,69.23
2023-01-20T10:37:48.258Z,68.82
2023-01-20T10:41:14.747Z,68.65
2023-01-20T10:44:19.211Z,68.26
2023-01-20T10:47:28.454Z,68.31
2023-01-20T10:51:15.489Z,67.80
2023-01-20T10:54:48.957Z,67.45
2023-01-20T10:57:56.366Z,67.83
2023-01-20T11:01:03.377Z,67.50
2023-01-20T11:04:07.497Z,66.91
2023-01-20T11:07:16.187Z,67.21
2023-01-20T11:10:28.209Z,67.03
2023-01-20T11:13:30.566Z,67.42
2023-01-20T11:16:34.401Z,67.45
2023-01-20T11:19:57.564Z,67.69
2023-01-20T11:23:00.185Z,67.89
2023-01-20T11:26:25.574Z,68.46
2023-01-20T11:29:31.151Z,68.62
2023-01-20T11:32:36.903Z,69.00
2023-01-20T11:35:39.591Z,69.15
2023-01-20T11:38:44.626Z,69.23
2023-01-20T11:41:47.320Z,69.20
2023-01-20T11:45:08.544Z,69.60
2023-01-20T11:48:21.818Z,69.78
2023-01-20T11:51:25.897Z,69.75
2023-01-20T11:54:30.026Z,69.99
2023-01-20T11:57:32.464Z,70.37
2023-01-20T12:00:43.970Z,70.84
2023-01-20T12:04:14.177Z,71.24
2023-01-20T12:07:37.511Z,71.33
2023-01-20T12:10:41.094Z,72.23
2023-01-20T12:14:20.317Z,72.05
2023-01-20T12:17:52.151Z,72.17
2023-01-20T12:21:18.045Z,71.90
2023-01-20T12:24:53.633Z,72.60
2023-01-20T12:28:04.439Z,72.74
2023-01-20T12:31:11.504Z,72.44
2023-01-20T12:34:16.412Z,73.04
2023-01-20T12:37:19.038Z,72.94
2023-01-20T12:40:47.895Z,72.90
2023-01-20T12:44:08.818Z,72.55
2023-01-20T12:47:33.418Z,72.55
2023-01-20T12:51:17.800Z,72.94
2023-01-20T12:54:48.016Z,73.38
2023-01-20T12:58:23.383Z,73.38
2023-01-20T13:02:05.140Z,73.25
2023-01-20T13:05:32.661Z,74.46
2023-01-20T13:08:46.904Z,74.88
2023-01-20T13:12:14.326Z,74.83
2023-01-20T13:15:23.173Z,74.74
2023-01-20T13:18:41.836Z,75.40
2023-01-20T13:21:44.286Z,75.86
2023-01-20T13:24:50.336Z,75.71
2023-01-20T13:27:54.613Z,76.39
2023-01-20T13:30:59.527Z,76.19
2023-01-20T13:34:31.077Z,76.63
2023-01-20T13:37:38.458Z,76.70
2023-01-20T13:40:45.692Z,77.17
2023-01-20T13:43:49.777Z,77.09
2023-01-20T13:46:52.209Z,77.23
2023-01-20T13:49:54.776Z,77.09
2023-01-20T13:53:00.127Z,77.44
2023-01-20T13:56:02.856Z,77.54
2023-01-20T13:59:07.775Z,77.13
2023-01-20T14:02:18.052Z,77.74
2023-01-20T14:05:27.076Z,77.57
2023-01-20T14:08:39.031Z,77.49
2023-01-20T14:11:49.781Z,77.47
2023-01-20T14:14:53.781Z,77.11
2023-01-20T14:17:58.492Z,77.17
2023-01-20T14:21:21.158Z,77.61
2023-01-20T14:24:45.537Z,77.14
2023-01-20T14:27:47.855Z,77.11
2023-01-20T14:31:04.582Z,77.53
2023-01-20T14:34:28.164Z,77.52
2023-01-20T14:37:37.548Z,77.67
2023-01-20T14:40:42.951Z,77.53
2023-01-20T14:43:45.617Z,77.44
2023-01-20T14:46:51.258Z,77.14
2023-01-20T14:49:54.735Z,77.20
2023-01-20T14:52:57.117Z,77.13
2023-01-20T14:56:02.806Z,77.46
2023-01-20T14:59:05.268Z,77.45
2023-01-20T15:02:20.073Z,77.54
2023-01-20T15:05:28.893Z,77.58
2023-01-20T15:08:34.380Z,77.37
2023-01-20T15:11:36.942Z,77.94
2023-01-20T15:14:40.979Z,77.73
2023-01-20T15:18:11.328Z,78.20
2023-01-20T15:21:27.919Z,78.38
2023-01-20T15:24:32.545Z,78.72
2023-01-20T15:27:36.426Z,78.31
2023-01-20T15:30:38.771Z,77.72
2023-01-20T15:33:41.994Z,78.30
2023-01-20T15:36:45.987Z,77.96
2023-01-20T15:39:48.722Z,78.66
2023-01-20T15:42:51.849Z,79.31
2023-01-20T15:45:54.711Z,78.55
2023-01-20T15:48:57.151Z,78.60
2023-01-20T15:51:59.769Z,78.58
2023-01-20T15:55:02.138Z,78.37
2023-01-20T15:58:20.898Z,78.59
2023-01-20T16:01:25.758Z,78.57
2023-01-20T16:04:28.837Z,78.28
2023-01-20T16:07:31.196Z,78.45
2023-01-20T16:10:36.247Z,78.59
2023-01-20T16:13:38.676Z,78.08
2023-01-20T16:16:41.591Z,78.01
2023-01-20T16:19:44.349Z,78.05
2023-01-20T16:22:48.169Z,78.54
2023-01-20T16:25:50.566Z,78.63
2023-01-20T16:28:55.960Z,78.92
2023-01-20T16:31:58.366Z,78.51
2023-01-20T16:35:01.144Z,78.29
2023-01-20T16:38:04.303Z,78.23
2023-01-20T16:41:36.758Z,78.39
2023-01-20T16:44:39.182Z,78.59
2023-01-20T16:47:42.001Z,78.04
2023-01-20T16:50:44.428Z,78.72
2023-01-20T16:53:47.296Z,78.69
2023-01-20T16:56:49.713Z,78.73
2023-01-20T16:59:52.823Z,78.86
2023-01-20T17:02:55.164Z,79.18
2023-01-20T17:05:58.951Z,78.84
2023-01-20T17:10:17.916Z,76.96
2023-01-20T17:13:20.821Z,76.96
2023-01-20T17:16:24.114Z,78.99
2023-01-20T17:19:26.968Z,79.32
2023-01-20T17:22:29.389Z,79.60
2023-01-20T17:25:32.082Z,79.29
2023-01-20T17:28:55.919Z,79.58
2023-01-20T17:31:58.709Z,79.39
2023-01-20T17:35:01.227Z,79.34
2023-01-20T17:38:03.868Z,79.58
2023-01-20T17:41:07.852Z,79.33
2023-01-20T17:44:10.552Z,78.89
2023-01-20T17:47:13.296Z,79.17
2023-01-20T17:50:16.440Z,78.80
2023-01-20T17:53:18.965Z,78.96
2023-01-20T17:56:22.553Z,78.97
2023-01-20T17:59:26.273Z,79.18
2023-01-20T18:02:29.293Z,79.17
2023-01-20T18:05:32.173Z,79.01
2023-01-20T18:08:35.084Z,78.60
2023-01-20T18:11:37.982Z,78.66
2023-01-20T18:14:40.306Z,79.01
2023-01-20T18:17:43.631Z,78.68
2023-01-20T18:20:45.953Z,78.91
2023-01-20T18:23:50.037Z,78.79
2023-01-20T18:26:52.393Z,78.79
2023-01-20T18:29:55.076Z,78.96
2023-01-20T18:32:57.611Z,78.04
2023-01-20T18:36:02.788Z,77.98
2023-01-20T18:39:20.715Z,78.25
2023-01-20T18:42:23.471Z,78.39
2023-01-20T18:45:27.247Z,78.38
2023-01-20T18:48:29.918Z,78.38
2023-01-20T18:51:32.963Z,77.74
2023-01-20T18:54:38.425Z,77.88
2023-01-20T18:57:40.779Z,77.83
2023-01-20T19:04:38.816Z,0.00
2023-01-20T19:10:06.285Z,0.00
2023-01-20T19:13:09.121Z,0.00
2023-01-20T19:18:34.244Z,0.00
2023-01-20T19:21:37.497Z,0.00
2023-01-20T19:24:39.981Z,0.00
2023-01-20T19:27:42.611Z,0.00
2023-01-20T19:30:45.091Z,0.00
2023-01-20T19:33:49.046Z,0.00
2023-01-20T19:36:53.904Z,0.00
2023-01-20T19:39:57.141Z,0.00
2023-01-20T19:43:00.769Z,0.00
2023-01-20T19:46:06.968Z,0.00
2023-01-20T19:49:11.213Z,0.00
2023-01-20T19:52:13.836Z,0.00
2023-01-20T19:55:16.166Z,0.00
2023-01-20T19:58:18.751Z,0.00
2023-01-20T20:01:26.033Z,0.00
2023-01-20T20:04:28.785Z,0.00
2023-01-20T20:07:31.105Z,0.00
2023-01-20T20:10:33.694Z,0.00
2023-01-20T20:13:36.416Z,0.00
2023-01-20T20:16:39.556Z,0.00
2023-01-20T20:19:41.861Z,0.00
2023-01-20T20:22:44.460Z,0.00
2023-01-20T20:25:52.317Z,0.00
2023-01-20T20:28:55.002Z,0.00
2023-01-20T20:31:57.377Z,0.00
2023-01-20T20:36:11.809Z,0.00
2023-01-20T20:39:17.202Z,0.00
2023-01-20T20:42:19.905Z,0.00
2023-01-20T20:45:23.315Z,0.00
2023-01-20T20:48:25.640Z,0.00
2023-01-20T20:51:31.742Z,0.00
2023-01-20T20:54:34.199Z,0.00
2023-01-20T20:57:37.012Z,0.00
2023-01-20T21:00:39.568Z,0.00
2023-01-20T21:03:43.530Z,0.00
2023-01-20T21:06:45.905Z,0.00
2023-01-20T21:09:48.473Z,0.00
2023-01-20T21:12:51.327Z,0.00
2023-01-20T21:16:03.810Z,0.00
2023-01-20T21:19:06.435Z,0.00
2023-01-20T21:22:09.158Z,0.00
2023-01-20T21:25:11.464Z,0.00
2023-01-20T21:28:14.112Z,0.00
2023-01-20T21:31:20.899Z,0.00
2023-01-20T21:34:23.807Z,0.00
2023-01-20T21:39:02.350Z,0.00
2023-01-20T21:42:06.136Z,0.00
2023-01-20T21:45:09.093Z,0.00
2023-01-20T21:48:31.641Z,0.00
2023-01-20T21:51:53.264Z,0.00
2023-01-20T21:54:55.944Z,0.00
2023-01-20T21:57:58.268Z,0.00
2023-01-20T22:01:00.939Z,0.00
2023-01-20T22:04:04.194Z,0.00
2023-01-20T22:07:07.357Z,0.00
2023-01-20T22:10:10.850Z,0.00
2023-01-20T22:13:13.127Z,0.00
2023-01-20T22:16:15.718Z,0.00
2023-01-20T22:19:18.056Z,0.00
2023-01-20T22:22:21.114Z,0.00
2023-01-20T22:25:23.552Z,0.00
2023-01-20T22:28:26.237Z,0.00
2023-01-20T22:31:30.200Z,0.00
2023-01-20T22:34:32.894Z,0.00
2023-01-20T22:37:35.228Z,0.00
2023-01-20T22:40:37.890Z,0.00
2023-01-20T22:43:43.911Z,0.00
2023-01-20T22:46:46.891Z,0.00
2023-01-20T22:49:49.279Z,0.00
2023-01-20T22:52:51.914Z,0.00
2023-01-20T22:56:12.549Z,0.00
2023-01-20T22:59:15.292Z,0.00
2023-01-20T23:02:17.648Z,0.00
2023-01-20T23:05:24.493Z,0.00
2023-01-20T23:08:28.631Z,0.00
2023-01-20T23:11:31.777Z,0.00
2023-01-20T23:14:52.492Z,0.00
2023-01-20T23:17:55.622Z,0.00
2023-01-20T23:20:58.642Z,0.00
2023-01-20T23:24:01.581Z,0.00
2023-01-20T23:27:04.068Z,0.00
2023-01-20T23:30:07.586Z,0.00
2023-01-20T23:33:11.279Z,0.00
2023-01-20T23:36:16.955Z,0.00
2023-01-20T23:39:19.398Z,0.00
2023-01-20T23:42:22.002Z,0.00
2023-01-20T23:45:24.431Z,0.00
2023-01-20T23:48:28.587Z,0.00
2023-01-20T23:51:30.883Z,0.00
2023-01-20T23:54:33.481Z,0.00
2023-01-20T23:57:35.777Z,0.00
